Whiteville, NC

7:57 AM EST on February 12, 2016 (GMT -0500)
CCSkywatch | | Change Station
CLOSE
Current Station
Personal Weather Station
Location: Whiteville, NC
Elevation: 91 ft
Nearby Weather Stations
Active Advisory: Winter Weather Advisory

Elev 91 ft 34.41 °N, 78.75 °W | Updated 0 second ago

Overcast
Overcast
31.6 °F
Feels Like 32 °F
N
2.0
Wind Variable Wind from NE
Gusts 7.0 mph

Today
High -- | Low -- °F
--% Chance of Precip.
Yesterday
High -- | Low -- °F
Precip. -- in
Pressure 30.22 in
Visibility 10.0 miles
Clouds Overcast 6000 ft
Windchill 32 °F
Dew Point 15 °F
Humidity 49%
Rainfall 0.00 in
Snow Depth Not available.
7:03 AM 5:55 PM
Waxing Crescent, 20% visible
METAR KCPC 121235Z AUTO 05008KT 10SM OVC060 01/M10 A3022 RMK AO2 T00061096
Pressure 30.22 in
Visibility 10.0 miles
Clouds Overcast 6000 ft
Windchill 32 °F
Dew Point 15 °F
Humidity 49%
Rainfall 0.00 in
Snow Depth Not available.
7:03 AM 5:55 PM
Waxing Crescent, 20% visible
METAR KCPC 121235Z AUTO 05008KT 10SM OVC060 01/M10 A3022 RMK AO2 T00061096

10-Day Weather Forecast

Almanac

Astronomy

Feb. 12, 2016 Rise Set
Actual Time
Civil Twilight
Nautical Twilight
Astronomical Twilight
Moon
Length of Visible Light
Length of Day
Tomorrow will be .
, % of the Moon is Illuminated

Today's Extremes

State Highs State Lows

Community

WunderPhotos

Upload Photos

1,892,300 photos uploaded!

WunderBlog® & News

Nearby

Air Quality

  Air Quality AQ Index Pollutant
Not available.

Snow Depth

Station Depth Elevation

Earthquake Activity

City Distance Mag. Time & Date
Minimum magnitude displayed is 2.5.

Coastal Water Temperatures

Place Temperature

Stations

Nearby Weather Stations

Station Location Temp. Windchill Dew Point Humidity Wind Precip. Elev Updated Type
                   

Watches & Warnings

Winter Weather Advisory
Issued: 3:39 AM EST Feb. 12, 2016 – National Weather Service

... Winter Weather Advisory now in effect until 1 PM EST this
afternoon...

* locations... Robeson... Bladen... Pender County except for the
immediate coast... Columbus... Marlboro and Dillon counties.

* Hazard types... freezing rain and sleet.

* Accumulations... .ice accumulation of a trace. A light coating of sleet
is possible.

* Timing... primarily this morning.

* Impacts... roadways and walkways may become slippery. Bridges
and untreated overpasses will become dangerous.

* Winds... northeast 5 to 10 mph.

* Temperatures... in the lower 30s this morning.

Precautionary/preparedness actions...

A Winter Weather Advisory means that periods of freezing rain...
snow... or sleet will cause travel difficulties. Be prepared for
slippery roads and use caution while driving.